sensor_id;sensor_type;location;lat;lon;timestamp;temperature;humidity
24338;DHT22;12457;50.832;4.346;2023-06-26T00:00:59;23.60;99.90
24338;DHT22;12457;50.832;4.346;2023-06-26T00:03:26;23.50;99.90
24338;DHT22;12457;50.832;4.346;2023-06-26T00:05:54;23.50;99.90
24338;DHT22;12457;50.832;4.346;2023-06-26T00:11:41;23.20;99.90
24338;DHT22;12457;50.832;4.346;2023-06-26T00:14:07;23.20;99.90
24338;DHT22;12457;50.832;4.346;2023-06-26T00:16:33;23.00;99.90
24338;DHT22;12457;50.832;4.346;2023-06-26T00:18:59;22.90;99.90
24338;DHT22;12457;50.832;4.346;2023-06-26T00:21:25;22.80;99.90
24338;DHT22;12457;50.832;4.346;2023-06-26T00:27:13;22.70;99.90
24338;DHT22;12457;50.832;4.346;2023-06-26T00:29:40;22.50;99.90
24338;DHT22;12457;50.832;4.346;2023-06-26T00:32:06;22.50;99.90
24338;DHT22;12457;50.832;4.346;2023-06-26T00:34:32;22.50;99.90
24338;DHT22;12457;50.832;4.346;2023-06-26T00:36:58;22.50;99.90
24338;DHT22;12457;50.832;4.346;2023-06-26T00:42:47;22.30;99.90
24338;DHT22;12457;50.832;4.346;2023-06-26T00:45:13;22.20;99.90
24338;DHT22;12457;50.832;4.346;2023-06-26T00:47:39;22.10;99.90
24338;DHT22;12457;50.832;4.346;2023-06-26T00:50:05;22.00;99.90
24338;DHT22;12457;50.832;4.346;2023-06-26T00:52:31;21.90;99.90
24338;DHT22;12457;50.832;4.346;2023-06-26T00:54:59;21.90;99.90
24338;DHT22;12457;50.832;4.346;2023-06-26T00:57:25;21.80;99.90
24338;DHT22;12457;50.832;4.346;2023-06-26T00:59:50;21.80;99.90
24338;DHT22;12457;50.832;4.346;2023-06-26T01:02:16;21.70;99.90
24338;DHT22;12457;50.832;4.346;2023-06-26T01:04:49;21.70;99.90
24338;DHT22;12457;50.832;4.346;2023-06-26T01:07:16;21.60;99.90
24338;DHT22;12457;50.832;4.346;2023-06-26T01:09:45;21.60;99.90
24338;DHT22;12457;50.832;4.346;2023-06-26T01:12:11;21.60;99.90
24338;DHT22;12457;50.832;4.346;2023-06-26T01:14:37;21.50;99.90
24338;DHT22;12457;50.832;4.346;2023-06-26T01:17:04;21.50;99.90
24338;DHT22;12457;50.832;4.346;2023-06-26T01:19:30;21.40;99.90
24338;DHT22;12457;50.832;4.346;2023-06-26T01:22:07;21.40;99.90
24338;DHT22;12457;50.832;4.346;2023-06-26T01:24:45;21.40;99.90
24338;DHT22;12457;50.832;4.346;2023-06-26T01:27:14;21.30;99.90
24338;DHT22;12457;50.832;4.346;2023-06-26T01:29:40;21.30;99.90
24338;DHT22;12457;50.832;4.346;2023-06-26T01:32:07;21.40;99.90
24338;DHT22;12457;50.832;4.346;2023-06-26T01:34:33;21.40;99.90
24338;DHT22;12457;50.832;4.346;2023-06-26T01:36:59;21.30;99.90
24338;DHT22;12457;50.832;4.346;2023-06-26T01:39:25;21.30;99.90
24338;DHT22;12457;50.832;4.346;2023-06-26T01:41:51;21.20;99.90
24338;DHT22;12457;50.832;4.346;2023-06-26T01:44:26;21.20;99.90
24338;DHT22;12457;50.832;4.346;2023-06-26T01:46:58;21.20;99.90
24338;DHT22;12457;50.832;4.346;2023-06-26T01:49:38;21.10;99.90
24338;DHT22;12457;50.832;4.346;2023-06-26T01:52:14;21.20;99.90
24338;DHT22;12457;50.832;4.346;2023-06-26T01:57:39;21.20;99.90
24338;DHT22;12457;50.832;4.346;2023-06-26T02:00:06;21.20;99.90
24338;DHT22;12457;50.832;4.346;2023-06-26T02:02:35;21.00;99.90
24338;DHT22;12457;50.832;4.346;2023-06-26T02:05:01;20.90;99.90
24338;DHT22;12457;50.832;4.346;2023-06-26T02:07:27;20.90;99.90
24338;DHT22;12457;50.832;4.346;2023-06-26T02:09:53;20.80;99.90
24338;DHT22;12457;50.832;4.346;2023-06-26T02:12:19;20.80;99.90
24338;DHT22;12457;50.832;4.346;2023-06-26T02:14:44;20.60;99.90
24338;DHT22;12457;50.832;4.346;2023-06-26T02:17:10;20.70;99.90
24338;DHT22;12457;50.832;4.346;2023-06-26T02:19:36;20.70;99.90
24338;DHT22;12457;50.832;4.346;2023-06-26T02:22:01;20.60;99.90
24338;DHT22;12457;50.832;4.346;2023-06-26T02:24:27;20.70;99.90
24338;DHT22;12457;50.832;4.346;2023-06-26T02:26:56;20.70;99.90
24338;DHT22;12457;50.832;4.346;2023-06-26T02:29:22;20.70;99.90
24338;DHT22;12457;50.832;4.346;2023-06-26T02:31:48;20.70;99.90
24338;DHT22;12457;50.832;4.346;2023-06-26T02:34:14;20.70;99.90
24338;DHT22;12457;50.832;4.346;2023-06-26T02:36:40;20.70;99.90
24338;DHT22;12457;50.832;4.346;2023-06-26T02:39:06;20.70;99.90
24338;DHT22;12457;50.832;4.346;2023-06-26T02:41:33;20.70;99.90
24338;DHT22;12457;50.832;4.346;2023-06-26T02:43:58;20.60;99.90
24338;DHT22;12457;50.832;4.346;2023-06-26T02:46:24;20.70;99.90
24338;DHT22;12457;50.832;4.346;2023-06-26T02:48:51;20.70;99.90
24338;DHT22;12457;50.832;4.346;2023-06-26T02:51:17;20.70;99.90
24338;DHT22;12457;50.832;4.346;2023-06-26T02:53:43;20.60;99.90
24338;DHT22;12457;50.832;4.346;2023-06-26T02:56:08;20.40;99.90
24338;DHT22;12457;50.832;4.346;2023-06-26T02:58:34;20.30;99.90
24338;DHT22;12457;50.832;4.346;2023-06-26T03:00:59;20.30;99.90
24338;DHT22;12457;50.832;4.346;2023-06-26T03:03:25;20.30;99.90
24338;DHT22;12457;50.832;4.346;2023-06-26T03:05:51;20.20;99.90
24338;DHT22;12457;50.832;4.346;2023-06-26T03:08:17;20.10;99.90
24338;DHT22;12457;50.832;4.346;2023-06-26T03:14:04;20.00;99.90
24338;DHT22;12457;50.832;4.346;2023-06-26T03:16:30;19.90;99.90
24338;DHT22;12457;50.832;4.346;2023-06-26T03:18:56;19.80;99.90
24338;DHT22;12457;50.832;4.346;2023-06-26T03:21:22;19.80;99.90
24338;DHT22;12457;50.832;4.346;2023-06-26T03:23:47;19.80;99.90
24338;DHT22;12457;50.832;4.346;2023-06-26T03:26:13;19.80;99.90
24338;DHT22;12457;50.832;4.346;2023-06-26T03:28:40;19.70;99.90
24338;DHT22;12457;50.832;4.346;2023-06-26T03:31:07;19.60;99.90
24338;DHT22;12457;50.832;4.346;2023-06-26T03:33:33;19.60;99.90
24338;DHT22;12457;50.832;4.346;2023-06-26T03:35:59;19.60;99.90
24338;DHT22;12457;50.832;4.346;2023-06-26T03:38:24;19.60;99.90
24338;DHT22;12457;50.832;4.346;2023-06-26T03:44:27;19.50;99.90
24338;DHT22;12457;50.832;4.346;2023-06-26T03:46:53;19.40;99.90
24338;DHT22;12457;50.832;4.346;2023-06-26T03:49:19;19.30;99.90
24338;DHT22;12457;50.832;4.346;2023-06-26T03:51:46;19.30;99.90
24338;DHT22;12457;50.832;4.346;2023-06-26T03:54:11;19.40;99.90
24338;DHT22;12457;50.832;4.346;2023-06-26T03:56:37;19.50;99.90
24338;DHT22;12457;50.832;4.346;2023-06-26T03:59:03;19.40;99.90
24338;DHT22;12457;50.832;4.346;2023-06-26T04:01:29;19.50;99.90
24338;DHT22;12457;50.832;4.346;2023-06-26T04:03:54;19.50;99.90
24338;DHT22;12457;50.832;4.346;2023-06-26T04:06:20;19.50;99.90
24338;DHT22;12457;50.832;4.346;2023-06-26T04:08:47;19.60;99.90
24338;DHT22;12457;50.832;4.346;2023-06-26T04:14:35;19.60;99.90
24338;DHT22;12457;50.832;4.346;2023-06-26T04:17:00;19.70;99.90
24338;DHT22;12457;50.832;4.346;2023-06-26T04:19:29;19.70;99.90
24338;DHT22;12457;50.832;4.346;2023-06-26T04:21:54;19.70;99.90
24338;DHT22;12457;50.832;4.346;2023-06-26T04:24:20;19.70;99.90
24338;DHT22;12457;50.832;4.346;2023-06-26T04:26:46;19.70;99.90
24338;DHT22;12457;50.832;4.346;2023-06-26T04:29:11;19.80;99.90
24338;DHT22;12457;50.832;4.346;2023-06-26T04:31:38;19.80;99.90
24338;DHT22;12457;50.832;4.346;2023-06-26T04:34:04;19.80;99.90
24338;DHT22;12457;50.832;4.346;2023-06-26T04:36:30;20.00;99.90
24338;DHT22;12457;50.832;4.346;2023-06-26T04:38:57;20.20;99.90
24338;DHT22;12457;50.832;4.346;2023-06-26T04:44:46;20.80;99.90
24338;DHT22;12457;50.832;4.346;2023-06-26T04:47:11;21.20;99.90
24338;DHT22;12457;50.832;4.346;2023-06-26T04:49:39;21.20;99.90
24338;DHT22;12457;50.832;4.346;2023-06-26T04:52:10;21.20;99.90
24338;DHT22;12457;50.832;4.346;2023-06-26T04:54:38;21.10;99.90
24338;DHT22;12457;50.832;4.346;2023-06-26T04:57:04;21.10;99.90
24338;DHT22;12457;50.832;4.346;2023-06-26T04:59:31;21.20;99.90
24338;DHT22;12457;50.832;4.346;2023-06-26T05:01:56;21.40;99.90
24338;DHT22;12457;50.832;4.346;2023-06-26T05:04:22;21.70;99.90
24338;DHT22;12457;50.832;4.346;2023-06-26T05:06:48;22.00;99.90
24338;DHT22;12457;50.832;4.346;2023-06-26T05:09:15;22.30;99.90
24338;DHT22;12457;50.832;4.346;2023-06-26T05:15:03;22.30;99.90
24338;DHT22;12457;50.832;4.346;2023-06-26T05:17:29;22.70;99.90
24338;DHT22;12457;50.832;4.346;2023-06-26T05:19:55;23.00;99.90
24338;DHT22;12457;50.832;4.346;2023-06-26T05:22:21;23.20;99.90
24338;DHT22;12457;50.832;4.346;2023-06-26T05:24:47;23.40;99.90
24338;DHT22;12457;50.832;4.346;2023-06-26T05:27:13;23.70;99.90
24338;DHT22;12457;50.832;4.346;2023-06-26T05:29:46;23.90;99.90
24338;DHT22;12457;50.832;4.346;2023-06-26T05:32:15;24.30;99.90
24338;DHT22;12457;50.832;4.346;2023-06-26T05:34:44;24.20;99.90
24338;DHT22;12457;50.832;4.346;2023-06-26T05:37:14;24.00;99.90
24338;DHT22;12457;50.832;4.346;2023-06-26T05:39:40;24.20;99.90
24338;DHT22;12457;50.832;4.346;2023-06-26T05:42:06;24.10;99.90
24338;DHT22;12457;50.832;4.346;2023-06-26T05:44:32;24.20;99.90
24338;DHT22;12457;50.832;4.346;2023-06-26T05:46:58;24.40;99.90
24338;DHT22;12457;50.832;4.346;2023-06-26T05:49:23;24.30;99.90
24338;DHT22;12457;50.832;4.346;2023-06-26T05:51:49;24.30;99.90
24338;DHT22;12457;50.832;4.346;2023-06-26T05:54:15;24.50;99.90
24338;DHT22;12457;50.832;4.346;2023-06-26T06:00:03;24.70;99.90
24338;DHT22;12457;50.832;4.346;2023-06-26T06:02:32;24.80;99.90
24338;DHT22;12457;50.832;4.346;2023-06-26T06:04:57;24.70;99.90
24338;DHT22;12457;50.832;4.346;2023-06-26T06:07:23;24.60;99.90
24338;DHT22;12457;50.832;4.346;2023-06-26T06:09:49;24.90;99.90
24338;DHT22;12457;50.832;4.346;2023-06-26T06:15:37;25.40;99.90
24338;DHT22;12457;50.832;4.346;2023-06-26T06:18:02;25.50;99.90
24338;DHT22;12457;50.832;4.346;2023-06-26T06:20:28;25.70;99.60
24338;DHT22;12457;50.832;4.346;2023-06-26T06:22:54;25.80;98.90
24338;DHT22;12457;50.832;4.346;2023-06-26T06:25:20;25.20;99.50
24338;DHT22;12457;50.832;4.346;2023-06-26T06:27:46;25.00;99.90
24338;DHT22;12457;50.832;4.346;2023-06-26T06:30:12;25.50;99.60
24338;DHT22;12457;50.832;4.346;2023-06-26T06:32:38;25.50;98.80
24338;DHT22;12457;50.832;4.346;2023-06-26T06:35:03;25.80;98.20
24338;DHT22;12457;50.832;4.346;2023-06-26T06:37:34;25.40;98.70
24338;DHT22;12457;50.832;4.346;2023-06-26T06:39:59;25.50;98.50
24338;DHT22;12457;50.832;4.346;2023-06-26T06:45:47;26.00;97.30
24338;DHT22;12457;50.832;4.346;2023-06-26T06:48:13;25.90;96.40
24338;DHT22;12457;50.832;4.346;2023-06-26T06:50:39;25.90;96.10
24338;DHT22;12457;50.832;4.346;2023-06-26T06:53:04;26.10;95.70
24338;DHT22;12457;50.832;4.346;2023-06-26T06:55:30;25.70;95.80
24338;DHT22;12457;50.832;4.346;2023-06-26T06:57:56;25.20;96.70
24338;DHT22;12457;50.832;4.346;2023-06-26T07:00:21;24.70;97.10
24338;DHT22;12457;50.832;4.346;2023-06-26T07:02:47;24.80;97.50
24338;DHT22;12457;50.832;4.346;2023-06-26T07:05:13;25.00;96.90
24338;DHT22;12457;50.832;4.346;2023-06-26T07:07:39;25.10;96.70
24338;DHT22;12457;50.832;4.346;2023-06-26T07:10:07;24.50;96.90
24338;DHT22;12457;50.832;4.346;2023-06-26T07:15:57;24.40;98.00
24338;DHT22;12457;50.832;4.346;2023-06-26T07:18:23;24.80;97.70
24338;DHT22;12457;50.832;4.346;2023-06-26T07:20:49;25.00;97.20
24338;DHT22;12457;50.832;4.346;2023-06-26T07:23:14;25.30;96.60
24338;DHT22;12457;50.832;4.346;2023-06-26T07:25:40;25.40;96.20
24338;DHT22;12457;50.832;4.346;2023-06-26T07:28:12;25.90;95.70
24338;DHT22;12457;50.832;4.346;2023-06-26T07:30:38;26.10;94.80
24338;DHT22;12457;50.832;4.346;2023-06-26T07:33:04;25.90;94.40
24338;DHT22;12457;50.832;4.346;2023-06-26T07:35:30;25.70;94.60
24338;DHT22;12457;50.832;4.346;2023-06-26T07:37:56;25.40;95.50
24338;DHT22;12457;50.832;4.346;2023-06-26T07:40:22;25.50;95.40
24338;DHT22;12457;50.832;4.346;2023-06-26T07:46:10;26.30;93.30
24338;DHT22;12457;50.832;4.346;2023-06-26T07:48:35;26.50;93.10
24338;DHT22;12457;50.832;4.346;2023-06-26T07:51:01;26.50;92.80
24338;DHT22;12457;50.832;4.346;2023-06-26T07:53:27;26.70;92.10
24338;DHT22;12457;50.832;4.346;2023-06-26T07:55:53;27.10;90.80
24338;DHT22;12457;50.832;4.346;2023-06-26T07:58:19;26.70;90.50
24338;DHT22;12457;50.832;4.346;2023-06-26T08:00:46;26.10;91.50
24338;DHT22;12457;50.832;4.346;2023-06-26T08:03:11;25.60;91.80
24338;DHT22;12457;50.832;4.346;2023-06-26T08:05:37;24.80;93.40
24338;DHT22;12457;50.832;4.346;2023-06-26T08:08:03;24.60;93.50
24338;DHT22;12457;50.832;4.346;2023-06-26T08:10:29;24.40;93.50
24338;DHT22;12457;50.832;4.346;2023-06-26T08:16:17;25.00;93.10
24338;DHT22;12457;50.832;4.346;2023-06-26T08:18:43;25.40;93.40
24338;DHT22;12457;50.832;4.346;2023-06-26T08:21:09;25.80;92.60
24338;DHT22;12457;50.832;4.346;2023-06-26T08:23:35;25.10;93.40
24338;DHT22;12457;50.832;4.346;2023-06-26T08:32:25;24.60;94.00
24338;DHT22;12457;50.832;4.346;2023-06-26T08:34:51;24.40;94.10
24338;DHT22;12457;50.832;4.346;2023-06-26T08:37:17;23.90;95.20
24338;DHT22;12457;50.832;4.346;2023-06-26T08:39:43;23.50;96.00
24338;DHT22;12457;50.832;4.346;2023-06-26T08:42:08;23.50;96.80
24338;DHT22;12457;50.832;4.346;2023-06-26T08:44:35;23.60;96.70
24338;DHT22;12457;50.832;4.346;2023-06-26T08:47:03;23.60;96.20
24338;DHT22;12457;50.832;4.346;2023-06-26T08:49:46;23.80;96.00
24338;DHT22;12457;50.832;4.346;2023-06-26T08:52:25;23.70;95.60
24338;DHT22;12457;50.832;4.346;2023-06-26T08:54:58;23.80;94.60
24338;DHT22;12457;50.832;4.346;2023-06-26T08:57:26;23.40;94.10
24338;DHT22;12457;50.832;4.346;2023-06-26T08:59:53;23.10;94.90
24338;DHT22;12457;50.832;4.346;2023-06-26T09:02:20;23.10;94.90
24338;DHT22;12457;50.832;4.346;2023-06-26T09:04:49;23.30;94.70
24338;DHT22;12457;50.832;4.346;2023-06-26T09:07:17;23.20;94.50
24338;DHT22;12457;50.832;4.346;2023-06-26T09:09:43;23.40;94.60
24338;DHT22;12457;50.832;4.346;2023-06-26T09:12:09;23.60;94.40
24338;DHT22;12457;50.832;4.346;2023-06-26T09:14:36;23.80;93.80
24338;DHT22;12457;50.832;4.346;2023-06-26T09:17:02;23.50;93.40
24338;DHT22;12457;50.832;4.346;2023-06-26T09:19:29;23.50;93.20
24338;DHT22;12457;50.832;4.346;2023-06-26T09:21:55;23.80;92.40
24338;DHT22;12457;50.832;4.346;2023-06-26T09:24:21;23.80;92.10
24338;DHT22;12457;50.832;4.346;2023-06-26T09:30:10;23.80;92.20
24338;DHT22;12457;50.832;4.346;2023-06-26T09:32:36;24.00;92.40
24338;DHT22;12457;50.832;4.346;2023-06-26T09:35:03;24.00;92.20
24338;DHT22;12457;50.832;4.346;2023-06-26T09:37:30;24.10;91.20
24338;DHT22;12457;50.832;4.346;2023-06-26T09:39:57;23.80;90.20
24338;DHT22;12457;50.832;4.346;2023-06-26T09:45:45;23.40;88.60
24338;DHT22;12457;50.832;4.346;2023-06-26T09:48:13;23.10;90.20
24338;DHT22;12457;50.832;4.346;2023-06-26T09:50:41;23.10;90.90
24338;DHT22;12457;50.832;4.346;2023-06-26T09:53:11;23.30;90.80
24338;DHT22;12457;50.832;4.346;2023-06-26T09:55:39;23.00;90.60
24338;DHT22;12457;50.832;4.346;2023-06-26T10:01:28;23.60;89.00
24338;DHT22;12457;50.832;4.346;2023-06-26T10:03:54;23.60;89.50
24338;DHT22;12457;50.832;4.346;2023-06-26T10:06:50;23.80;89.40
24338;DHT22;12457;50.832;4.346;2023-06-26T10:09:19;23.70;88.70
24338;DHT22;12457;50.832;4.346;2023-06-26T10:18:31;24.50;82.50
24338;DHT22;12457;50.832;4.346;2023-06-26T10:20:59;24.60;81.40
24338;DHT22;12457;50.832;4.346;2023-06-26T10:23:25;24.30;82.20
24338;DHT22;12457;50.832;4.346;2023-06-26T10:25:54;24.40;81.00
24338;DHT22;12457;50.832;4.346;2023-06-26T10:28:22;24.40;79.60
24338;DHT22;12457;50.832;4.346;2023-06-26T10:30:51;24.00;78.10
24338;DHT22;12457;50.832;4.346;2023-06-26T10:33:19;24.20;78.30
24338;DHT22;12457;50.832;4.346;2023-06-26T10:35:45;24.60;77.50
24338;DHT22;12457;50.832;4.346;2023-06-26T10:38:11;24.40;77.80
24338;DHT22;12457;50.832;4.346;2023-06-26T10:40:48;23.90;81.00
24338;DHT22;12457;50.832;4.346;2023-06-26T10:43:16;23.80;82.60
24338;DHT22;12457;50.832;4.346;2023-06-26T10:45:45;24.10;82.70
24338;DHT22;12457;50.832;4.346;2023-06-26T10:48:14;24.20;82.20
24338;DHT22;12457;50.832;4.346;2023-06-26T10:50:40;24.50;77.90
24338;DHT22;12457;50.832;4.346;2023-06-26T10:53:23;24.80;77.10
24338;DHT22;12457;50.832;4.346;2023-06-26T10:55:56;25.10;74.80
24338;DHT22;12457;50.832;4.346;2023-06-26T11:03:38;25.90;73.30
24338;DHT22;12457;50.832;4.346;2023-06-26T11:06:17;25.60;72.60
24338;DHT22;12457;50.832;4.346;2023-06-26T11:08:52;25.40;73.60
24338;DHT22;12457;50.832;4.346;2023-06-26T11:11:22;25.40;74.50
24338;DHT22;12457;50.832;4.346;2023-06-26T11:14:07;25.40;73.00
24338;DHT22;12457;50.832;4.346;2023-06-26T11:16:34;25.40;72.90
24338;DHT22;12457;50.832;4.346;2023-06-26T11:19:00;25.50;72.00
24338;DHT22;12457;50.832;4.346;2023-06-26T11:21:26;25.30;72.20
24338;DHT22;12457;50.832;4.346;2023-06-26T11:23:53;25.10;74.50
24338;DHT22;12457;50.832;4.346;2023-06-26T11:26:23;25.30;74.00
24338;DHT22;12457;50.832;4.346;2023-06-26T11:28:51;25.20;74.10
24338;DHT22;12457;50.832;4.346;2023-06-26T11:31:36;25.30;74.80
24338;DHT22;12457;50.832;4.346;2023-06-26T11:34:05;25.10;76.80
24338;DHT22;12457;50.832;4.346;2023-06-26T11:36:31;24.80;75.40
24338;DHT22;12457;50.832;4.346;2023-06-26T11:39:02;24.70;77.20
24338;DHT22;12457;50.832;4.346;2023-06-26T11:41:32;24.80;76.90
24338;DHT22;12457;50.832;4.346;2023-06-26T11:44:03;24.70;76.20
24338;DHT22;12457;50.832;4.346;2023-06-26T11:46:31;24.80;73.30
24338;DHT22;12457;50.832;4.346;2023-06-26T11:48:57;24.70;73.90
24338;DHT22;12457;50.832;4.346;2023-06-26T11:51:26;24.80;73.00
24338;DHT22;12457;50.832;4.346;2023-06-26T11:53:52;24.90;72.90
24338;DHT22;12457;50.832;4.346;2023-06-26T11:56:18;24.60;73.40
24338;DHT22;12457;50.832;4.346;2023-06-26T11:59:08;24.40;73.70
24338;DHT22;12457;50.832;4.346;2023-06-26T12:01:44;24.40;73.20
24338;DHT22;12457;50.832;4.346;2023-06-26T12:04:11;24.50;71.60
24338;DHT22;12457;50.832;4.346;2023-06-26T12:06:39;25.00;70.30
24338;DHT22;12457;50.832;4.346;2023-06-26T12:09:09;25.00;69.30
24338;DHT22;12457;50.832;4.346;2023-06-26T12:11:37;25.30;67.30
24338;DHT22;12457;50.832;4.346;2023-06-26T12:14:05;25.60;64.80
24338;DHT22;12457;50.832;4.346;2023-06-26T12:16:36;25.80;61.30
24338;DHT22;12457;50.832;4.346;2023-06-26T12:19:04;25.80;61.60
24338;DHT22;12457;50.832;4.346;2023-06-26T12:24:14;25.30;63.10
24338;DHT22;12457;50.832;4.346;2023-06-26T12:26:49;25.00;64.50
24338;DHT22;12457;50.832;4.346;2023-06-26T12:29:18;24.70;64.50
24338;DHT22;12457;50.832;4.346;2023-06-26T12:31:48;24.50;63.00
24338;DHT22;12457;50.832;4.346;2023-06-26T12:34:19;24.30;63.50
24338;DHT22;12457;50.832;4.346;2023-06-26T12:36:49;24.30;64.50
24338;DHT22;12457;50.832;4.346;2023-06-26T12:39:17;24.70;64.40
24338;DHT22;12457;50.832;4.346;2023-06-26T12:41:52;25.10;63.20
24338;DHT22;12457;50.832;4.346;2023-06-26T12:44:25;25.50;63.10
24338;DHT22;12457;50.832;4.346;2023-06-26T12:46:57;25.90;62.20
24338;DHT22;12457;50.832;4.346;2023-06-26T12:49:42;26.30;61.60
24338;DHT22;12457;50.832;4.346;2023-06-26T12:52:12;26.30;61.10
24338;DHT22;12457;50.832;4.346;2023-06-26T12:54:45;26.30;61.40
24338;DHT22;12457;50.832;4.346;2023-06-26T12:57:13;26.40;59.70
24338;DHT22;12457;50.832;4.346;2023-06-26T12:59:41;26.50;59.70
24338;DHT22;12457;50.832;4.346;2023-06-26T13:02:07;26.50;59.80
24338;DHT22;12457;50.832;4.346;2023-06-26T13:04:35;26.50;60.70
24338;DHT22;12457;50.832;4.346;2023-06-26T13:07:03;26.10;60.70
24338;DHT22;12457;50.832;4.346;2023-06-26T13:09:33;25.60;60.90
24338;DHT22;12457;50.832;4.346;2023-06-26T13:11:59;25.30;62.60
24338;DHT22;12457;50.832;4.346;2023-06-26T13:14:25;24.70;63.90
24338;DHT22;12457;50.832;4.346;2023-06-26T13:16:51;24.70;63.70
24338;DHT22;12457;50.832;4.346;2023-06-26T13:19:17;24.70;64.50
24338;DHT22;12457;50.832;4.346;2023-06-26T13:21:43;24.40;65.70
24338;DHT22;12457;50.832;4.346;2023-06-26T13:24:09;24.60;66.30
24338;DHT22;12457;50.832;4.346;2023-06-26T13:26:35;24.90;65.00
24338;DHT22;12457;50.832;4.346;2023-06-26T13:29:01;25.40;63.10
24338;DHT22;12457;50.832;4.346;2023-06-26T13:31:27;25.60;62.00
24338;DHT22;12457;50.832;4.346;2023-06-26T13:33:53;25.90;60.80
24338;DHT22;12457;50.832;4.346;2023-06-26T13:36:19;26.10;61.00
24338;DHT22;12457;50.832;4.346;2023-06-26T13:38:45;26.10;60.30
24338;DHT22;12457;50.832;4.346;2023-06-26T13:41:11;25.50;60.60
24338;DHT22;12457;50.832;4.346;2023-06-26T13:43:38;25.30;61.60
24338;DHT22;12457;50.832;4.346;2023-06-26T13:50:06;26.00;59.80
24338;DHT22;12457;50.832;4.346;2023-06-26T13:52:33;25.90;61.10
24338;DHT22;12457;50.832;4.346;2023-06-26T13:54:58;25.70;61.50
24338;DHT22;12457;50.832;4.346;2023-06-26T13:57:24;26.00;61.20
24338;DHT22;12457;50.832;4.346;2023-06-26T13:59:49;26.20;61.30
24338;DHT22;12457;50.832;4.346;2023-06-26T14:02:16;26.40;59.70
24338;DHT22;12457;50.832;4.346;2023-06-26T14:04:42;26.40;57.90
24338;DHT22;12457;50.832;4.346;2023-06-26T14:07:10;26.40;57.50
24338;DHT22;12457;50.832;4.346;2023-06-26T14:09:36;26.40;56.70
24338;DHT22;12457;50.832;4.346;2023-06-26T14:12:02;26.30;56.90
24338;DHT22;12457;50.832;4.346;2023-06-26T14:14:27;26.30;55.50
24338;DHT22;12457;50.832;4.346;2023-06-26T14:16:53;26.40;55.00
24338;DHT22;12457;50.832;4.346;2023-06-26T14:19:20;26.60;55.50
24338;DHT22;12457;50.832;4.346;2023-06-26T14:21:47;26.40;55.40
24338;DHT22;12457;50.832;4.346;2023-06-26T14:24:13;26.60;55.10
24338;DHT22;12457;50.832;4.346;2023-06-26T14:26:40;26.70;54.60
24338;DHT22;12457;50.832;4.346;2023-06-26T14:29:06;26.70;54.10
24338;DHT22;12457;50.832;4.346;2023-06-26T14:31:32;26.20;54.30
24338;DHT22;12457;50.832;4.346;2023-06-26T14:33:57;26.10;55.10
24338;DHT22;12457;50.832;4.346;2023-06-26T14:36:24;26.50;54.80
24338;DHT22;12457;50.832;4.346;2023-06-26T14:38:50;26.70;54.10
24338;DHT22;12457;50.832;4.346;2023-06-26T14:41:16;26.80;54.30
24338;DHT22;12457;50.832;4.346;2023-06-26T14:43:41;26.90;54.60
24338;DHT22;12457;50.832;4.346;2023-06-26T14:46:08;26.80;54.90
24338;DHT22;12457;50.832;4.346;2023-06-26T14:48:34;26.70;54.60
24338;DHT22;12457;50.832;4.346;2023-06-26T14:50:59;26.40;54.60
24338;DHT22;12457;50.832;4.346;2023-06-26T14:53:26;26.40;54.60
24338;DHT22;12457;50.832;4.346;2023-06-26T14:55:52;26.40;54.90
24338;DHT22;12457;50.832;4.346;2023-06-26T14:58:18;26.60;55.70
24338;DHT22;12457;50.832;4.346;2023-06-26T15:00:43;26.10;56.20
24338;DHT22;12457;50.832;4.346;2023-06-26T15:03:09;25.70;56.80
24338;DHT22;12457;50.832;4.346;2023-06-26T15:05:35;25.60;57.30
24338;DHT22;12457;50.832;4.346;2023-06-26T15:08:01;25.40;58.00
24338;DHT22;12457;50.832;4.346;2023-06-26T15:10:27;25.50;58.70
24338;DHT22;12457;50.832;4.346;2023-06-26T15:12:52;25.40;59.00
24338;DHT22;12457;50.832;4.346;2023-06-26T15:15:19;25.40;59.70
24338;DHT22;12457;50.832;4.346;2023-06-26T15:17:49;25.50;59.40
24338;DHT22;12457;50.832;4.346;2023-06-26T15:20:14;25.60;59.80
24338;DHT22;12457;50.832;4.346;2023-06-26T15:22:40;25.40;60.60
24338;DHT22;12457;50.832;4.346;2023-06-26T15:25:07;25.00;62.30
24338;DHT22;12457;50.832;4.346;2023-06-26T15:27:32;25.10;62.40
24338;DHT22;12457;50.832;4.346;2023-06-26T15:29:58;25.10;63.00
24338;DHT22;12457;50.832;4.346;2023-06-26T15:32:25;25.30;62.20
24338;DHT22;12457;50.832;4.346;2023-06-26T15:34:50;25.00;62.30
24338;DHT22;12457;50.832;4.346;2023-06-26T15:37:16;24.70;63.50
24338;DHT22;12457;50.832;4.346;2023-06-26T15:39:42;24.80;63.50
24338;DHT22;12457;50.832;4.346;2023-06-26T15:42:09;24.90;63.40
24338;DHT22;12457;50.832;4.346;2023-06-26T15:44:34;24.80;63.10
24338;DHT22;12457;50.832;4.346;2023-06-26T15:50:22;24.40;64.40
24338;DHT22;12457;50.832;4.346;2023-06-26T15:52:49;24.50;64.20
24338;DHT22;12457;50.832;4.346;2023-06-26T15:55:15;24.40;63.40
24338;DHT22;12457;50.832;4.346;2023-06-26T15:57:41;24.60;62.00
24338;DHT22;12457;50.832;4.346;2023-06-26T16:00:07;24.80;60.80
24338;DHT22;12457;50.832;4.346;2023-06-26T16:02:33;24.80;60.10
24338;DHT22;12457;50.832;4.346;2023-06-26T16:05:00;24.80;60.50
24338;DHT22;12457;50.832;4.346;2023-06-26T16:07:26;24.80;60.10
24338;DHT22;12457;50.832;4.346;2023-06-26T16:09:57;24.80;60.00
24338;DHT22;12457;50.832;4.346;2023-06-26T16:12:23;25.00;60.50
24338;DHT22;12457;50.832;4.346;2023-06-26T16:14:50;25.30;59.30
24338;DHT22;12457;50.832;4.346;2023-06-26T16:20:38;25.20;60.70
24338;DHT22;12457;50.832;4.346;2023-06-26T16:23:04;25.50;61.10
24338;DHT22;12457;50.832;4.346;2023-06-26T16:25:30;25.30;61.00
24338;DHT22;12457;50.832;4.346;2023-06-26T16:27:55;25.40;60.90
24338;DHT22;12457;50.832;4.346;2023-06-26T16:30:21;25.40;61.20
24338;DHT22;12457;50.832;4.346;2023-06-26T16:32:47;25.40;61.30
24338;DHT22;12457;50.832;4.346;2023-06-26T16:35:12;25.30;61.60
24338;DHT22;12457;50.832;4.346;2023-06-26T16:37:38;25.20;61.10
24338;DHT22;12457;50.832;4.346;2023-06-26T16:40:05;24.70;62.10
24338;DHT22;12457;50.832;4.346;2023-06-26T16:42:30;24.50;63.50
24338;DHT22;12457;50.832;4.346;2023-06-26T16:44:56;24.50;63.10
24338;DHT22;12457;50.832;4.346;2023-06-26T16:50:44;24.40;61.70
24338;DHT22;12457;50.832;4.346;2023-06-26T16:53:10;24.30;62.70
24338;DHT22;12457;50.832;4.346;2023-06-26T16:55:35;24.20;63.30
24338;DHT22;12457;50.832;4.346;2023-06-26T16:58:01;24.20;64.20
24338;DHT22;12457;50.832;4.346;2023-06-26T17:00:26;24.00;64.60
24338;DHT22;12457;50.832;4.346;2023-06-26T17:02:52;23.70;65.50
24338;DHT22;12457;50.832;4.346;2023-06-26T17:05:18;23.60;66.00